EGBJ METAR and TAF | Updated Today

EGBJ METAR

Gloucestershire Airport

Observation time: 1:42 hr. ago

EGBJ 251650Z 24009KT 200V290 9999 VCSH FEW018 BKN026 BKN041 17/11 Q1013

Need help? Read our tutorial on how to read METARs or read the parsed version below.

Gloucestershire Airport (EGBJ) METAR

  • Weather conditions on Wed, 25 May 2022 16:50:00 +0000 (1:42 hr. ago):
  • Present conditions: In the vicinity, showers of
  • Clouds: A few at 549 meters; broken sky at 792 meters; broken sky at 1250 meters
  • Visibility: Greater than 10 km
  • Wind: 240 degrees at 9 knots
  • Temperature: 17 celsius
  • Dew point: 11 celsius
  • Pressure: 1013 millibars
  • Remarks: None


Useful to know...

EGBJ TAF

Gloucestershire Airport

TAF EGBJ 251359Z 2515/2519 25009KT 9999 SCT020 PROB30 TEMPO 2515/2519 28015G25KT
Observation time: 4:33 hr. ago
Need help? Read our tutorial on how to read TAFs or read the parsed version below.

Parsed version of TAF for Gloucestershire Airport (EGBJ)

  • From 25 May at 15:00 UTC, to day 25 of the month at 19:00 UTC
  • Clouds: Scattered at 610 meters
  • Visibility: Greater than 10 km
  • Wind: 250 degrees at 9
  • Expected to arise temporarily, from 25 May at 15:00 UTC, to day 25 of the month at 19:00 UTC
    Probability of 30%
  • Wind: 280 degrees at 15